Time;durP1;ratioP1;P1;durP2;ratioP2;P2;SDS_P1;SDS_P2;PMS_P1;PMS_P2;Temp;Humidity;BMP_temperature;BMP_pressure;BME280_temperature;BME280_humidity;BME280_pressure;Samples;Min_cycle;Max_cycle;Signal;HPM_P1;HPM_P2
2021/11/26 00:00:06;;;;;;;;;;;2.30;99.90;3.00;98757.00;;;;344698;28;83455;-87
2021/11/26 00:00:18;;;;;;;;;;;2.30;99.90;3.00;98762.00;;;;342754;28;93356;-87
2021/11/26 00:00:29;;;;;;;;;;;2.30;99.90;3.00;98759.00;;;;342529;28;83576;-87
2021/11/26 00:00:41;;;;;;;;;;;2.30;99.90;3.00;98757.00;;;;345071;28;95270;-87
2021/11/26 00:00:53;;;;;;;;;;;2.30;99.90;3.00;98763.00;;;;346004;28;82658;-87
2021/11/26 00:01:05;;;;;;;;;;;2.30;99.90;3.00;98760.00;;;;343987;28;92851;-87
2021/11/26 00:01:17;;;;;;;;;;;2.30;99.90;3.00;98760.00;;;;347458;28;83531;-87
2021/11/26 00:01:29;;;;;;;;;;;2.30;99.90;3.10;98765.00;;;;341137;28;94996;-87
2021/11/26 00:01:42;;;;;;;;;;;2.30;99.90;3.00;98767.00;;;;345909;28;83590;-88
2021/11/26 00:01:54;;;;;;;;;;;2.40;99.90;2.90;98763.00;;;;345262;28;95531;-88
2021/11/26 00:02:06;;;;;;;;;;;2.30;99.90;2.90;98761.00;;;;347333;28;83434;-88
2021/11/26 00:02:23;;;;;;;;;;;2.30;99.90;3.00;98756.00;;;;345211;28;95872;-87
2021/11/26 00:02:35;;;;;;;;;;;2.30;99.90;2.90;98759.00;;;;345730;28;83512;-87
2021/11/26 00:02:48;;;;;;;;;;;2.30;99.90;3.00;98765.00;;;;344071;28;94595;-86
2021/11/26 00:03:00;;;;;;;;;;;2.30;99.90;3.00;98766.00;;;;342064;28;83848;-87
2021/11/26 00:03:11;;;;;;;;;;;2.30;99.90;3.00;98761.00;;;;345049;28;94830;-88
2021/11/26 00:03:23;;;;;;;;;;;2.30;99.90;3.10;98757.00;;;;347305;28;83458;-87
2021/11/26 00:03:35;;;;;;;;;;;2.30;99.90;3.10;98768.00;;;;342553;28;95224;-88
2021/11/26 00:03:47;;;;;;;;;;;2.30;99.90;3.00;98761.00;;;;343517;28;82372;-88
2021/11/26 00:04:00;;;;;;;;;;;2.30;99.90;3.00;98762.00;;;;341971;28;93539;-88
2021/11/26 00:04:12;;;;;;;;;;;2.40;99.90;3.00;98764.00;;;;346168;28;83135;-87
2021/11/26 00:04:25;;;;;;;;;;;2.40;99.90;3.00;98764.00;;;;346575;28;94943;-87
2021/11/26 00:04:37;;;;;;;;;;;2.40;99.90;3.10;98762.00;;;;345873;28;83553;-87
2021/11/26 00:04:49;;;;;;;;;;;2.40;99.90;3.00;98760.00;;;;342453;28;94297;-87
2021/11/26 00:05:03;;;;;;;;;;;2.40;99.90;2.90;98762.00;;;;343301;28;83321;-87
2021/11/26 00:05:15;;;;;;;;;;;2.40;99.90;3.00;98768.00;;;;342436;28;92381;-87
2021/11/26 00:05:27;;;;;;;;;;;2.40;99.90;3.00;98765.00;;;;346046;28;83223;-87
2021/11/26 00:05:39;;;;;;;;;;;2.40;99.90;3.00;98768.00;;;;345364;28;92625;-87
2021/11/26 00:05:51;;;;;;;;;;;2.40;99.90;3.00;98770.00;;;;344575;28;83494;-88
2021/11/26 00:06:03;;;;;;;;;;;2.40;99.90;3.00;98763.00;;;;345269;28;95906;-87
2021/11/26 00:06:15;;;;;;;;;;;2.40;99.90;3.00;98767.00;;;;345951;28;82546;-88
2021/11/26 00:06:28;;;;;;;;;;;2.40;99.90;3.00;98763.00;;;;345421;28;94724;-87
2021/11/26 00:06:40;;;;;;;;;;;2.40;99.90;3.10;98767.00;;;;344901;28;83158;-87
2021/11/26 00:06:52;;;;;;;;;;;2.40;99.90;3.10;98762.00;;;;347866;27;95098;-87
2021/11/26 00:07:04;;;;;;;;;;;2.40;99.90;3.10;98765.00;;;;346965;28;83374;-88
2021/11/26 00:07:17;;;;;;;;;;;2.40;99.90;3.00;98758.00;;;;348160;27;93059;-88
2021/11/26 00:07:30;;;;;;;;;;;2.40;99.90;3.00;98773.00;;;;348489;27;82652;-87
2021/11/26 00:07:42;;;;;;;;;;;2.40;99.90;3.00;98765.00;;;;346629;28;95225;-87
2021/11/26 00:07:53;;;;;;;;;;;2.40;99.90;3.00;98777.00;;;;344662;28;83307;-87
2021/11/26 00:08:05;;;;;;;;;;;2.40;99.90;3.00;98760.00;;;;345324;28;94469;-88
2021/11/26 00:08:17;;;;;;;;;;;2.40;99.90;3.10;98762.00;;;;346019;28;83477;-87
2021/11/26 00:08:28;;;;;;;;;;;2.40;99.90;3.00;98759.00;;;;344024;28;94509;-88
2021/11/26 00:08:40;;;;;;;;;;;2.40;99.90;3.00;98773.00;;;;345707;28;83516;-87
2021/11/26 00:08:53;;;;;;;;;;;2.40;99.90;3.00;98766.00;;;;345371;28;92937;-87
2021/11/26 00:09:04;;;;;;;;;;;2.40;99.90;3.00;98760.00;;;;344396;28;82346;-87
2021/11/26 00:09:16;;;;;;;;;;;2.40;99.90;3.10;98761.00;;;;341212;28;93529;-87
2021/11/26 00:09:28;;;;;;;;;;;2.40;99.90;3.10;98775.00;;;;345700;28;83490;-87
2021/11/26 00:09:40;;;;;;;;;;;2.40;99.90;3.00;98772.00;;;;344034;28;95358;-88
2021/11/26 00:09:52;;;;;;;;;;;2.40;99.90;3.00;98761.00;;;;345970;28;83133;-87
2021/11/26 00:10:05;;;;;;;;;;;2.40;99.90;3.10;98766.00;;;;346488;28;94276;-87
2021/11/26 00:10:17;;;;;;;;;;;2.40;99.90;2.90;98758.00;;;;343336;28;82556;-88
2021/11/26 00:10:28;;;;;;;;;;;2.40;99.90;2.90;98772.00;;;;343828;28;94167;-87
2021/11/26 00:10:40;;;;;;;;;;;2.40;99.90;3.00;98768.00;;;;343478;28;83633;-87
2021/11/26 00:10:52;;;;;;;;;;;2.40;99.90;3.10;98768.00;;;;345349;28;94709;-87
2021/11/26 00:11:05;;;;;;;;;;;2.40;99.90;3.00;98770.00;;;;344227;28;83557;-87
2021/11/26 00:11:16;;;;;;;;;;;2.40;99.90;3.00;98771.00;;;;343917;28;93402;-88
2021/11/26 00:11:28;;;;;;;;;;;2.40;99.90;3.10;98772.00;;;;347359;28;82417;-87
2021/11/26 00:11:40;;;;;;;;;;;2.40;99.90;3.10;98774.00;;;;342628;28;94312;-88
2021/11/26 00:11:52;;;;;;;;;;;2.40;99.90;3.00;98760.00;;;;344559;28;83602;-88
2021/11/26 00:12:04;;;;;;;;;;;2.40;99.90;3.00;98770.00;;;;346073;28;93969;-87
2021/11/26 00:12:16;;;;;;;;;;;2.40;99.90;3.00;98779.00;;;;347589;28;82503;-87
2021/11/26 00:12:28;;;;;;;;;;;2.40;99.90;3.00;98764.00;;;;346589;28;95417;-87
2021/11/26 00:12:46;;;;;;;;;;;2.40;99.90;3.00;98768.00;;;;347312;28;83507;-87
2021/11/26 00:13:02;;;;;;;;;;;2.40;99.90;3.10;98771.00;;;;345112;28;95663;-87
2021/11/26 00:13:14;;;;;;;;;;;2.40;99.90;3.00;98768.00;;;;344794;28;83172;-87
2021/11/26 00:13:32;;;;;;;;;;;2.40;99.90;3.00;98768.00;;;;343477;28;92536;-87
2021/11/26 00:13:49;;;;;;;;;;;2.40;99.90;3.00;98765.00;;;;344426;28;83616;-88
2021/11/26 00:14:16;;;;;;;;;;;2.40;99.90;3.00;98757.00;;;;343742;28;96396;-87
2021/11/26 00:14:30;;;;;;;;;;;2.40;99.90;3.00;98770.00;;;;344832;28;83336;-88
2021/11/26 00:15:03;;;;;;;;;;;2.40;99.90;3.00;98764.00;;;;346610;28;93234;-87
2021/11/26 00:15:37;;;;;;;;;;;2.40;99.90;3.00;98766.00;;;;345394;28;83342;-87
2021/11/26 00:15:57;;;;;;;;;;;2.40;99.90;3.00;98761.00;;;;346752;28;95285;-88
2021/11/26 00:16:15;;;;;;;;;;;2.40;99.90;3.10;98767.00;;;;346232;28;83373;-87
2021/11/26 00:16:33;;;;;;;;;;;2.40;99.90;3.10;98766.00;;;;344103;28;91534;-88
2021/11/26 00:16:47;;;;;;;;;;;2.40;99.90;3.10;98767.00;;;;343436;28;83360;-88
2021/11/26 00:17:02;;;;;;;;;;;2.40;99.90;3.10;98762.00;;;;346610;28;95374;-87
2021/11/26 00:17:19;;;;;;;;;;;2.40;99.90;3.10;98755.00;;;;347400;28;82335;-87
2021/11/26 00:17:34;;;;;;;;;;;2.40;99.90;3.10;98764.00;;;;345293;28;95023;-88
2021/11/26 00:17:50;;;;;;;;;;;2.40;99.90;3.10;98769.00;;;;344916;28;82383;-88
2021/11/26 00:18:09;;;;;;;;;;;2.50;99.90;3.10;98765.00;;;;345845;28;96918;-88
2021/11/26 00:18:21;;;;;;;;;;;2.40;99.90;3.10;98766.00;;;;344465;28;82516;-88
2021/11/26 00:18:37;;;;;;;;;;;2.50;99.90;3.10;98758.00;;;;342456;28;95345;-88
2021/11/26 00:18:54;;;;;;;;;;;2.40;99.90;3.00;98762.00;;;;347288;28;83507;-87
2021/11/26 00:19:07;;;;;;;;;;;2.50;99.90;3.10;98764.00;;;;345302;28;93851;-87
2021/11/26 00:19:19;;;;;;;;;;;2.50;99.90;3.10;98767.00;;;;344129;28;83516;-87
2021/11/26 00:19:31;;;;;;;;;;;2.50;99.90;3.00;98767.00;;;;345312;28;94427;-88
2021/11/26 00:19:43;;;;;;;;;;;2.40;99.90;3.00;98756.00;;;;346099;28;83501;-87
2021/11/26 00:19:54;;;;;;;;;;;2.50;99.90;3.00;98763.00;;;;345082;28;97917;-87
2021/11/26 00:20:06;;;;;;;;;;;2.40;99.90;3.00;98757.00;;;;345884;28;83248;-88
2021/11/26 00:20:18;;;;;;;;;;;2.40;99.90;3.10;98754.00;;;;342435;28;93424;-88
2021/11/26 00:20:31;;;;;;;;;;;2.40;99.90;3.10;98754.00;;;;347418;28;83418;-88
2021/11/26 00:20:43;;;;;;;;;;;2.50;99.90;3.10;98769.00;;;;343794;28;95582;-88
2021/11/26 00:20:55;;;;;;;;;;;2.50;99.90;3.00;98771.00;;;;342958;28;83312;-88
2021/11/26 00:21:08;;;;;;;;;;;2.50;99.90;2.90;98767.00;;;;345025;28;93372;-87
2021/11/26 00:21:20;;;;;;;;;;;2.40;99.90;2.90;98769.00;;;;345948;28;82573;-87
2021/11/26 00:21:32;;;;;;;;;;;2.40;99.90;3.00;98757.00;;;;343909;28;94645;-86
2021/11/26 00:21:44;;;;;;;;;;;2.40;99.90;3.00;98762.00;;;;346036;28;82593;-88
2021/11/26 00:21:57;;;;;;;;;;;2.40;99.90;3.00;98766.00;;;;343973;28;93808;-88
2021/11/26 00:22:09;;;;;;;;;;;2.40;99.90;3.00;98764.00;;;;344427;28;83387;-87
2021/11/26 00:22:20;;;;;;;;;;;2.40;99.90;3.00;98757.00;;;;343901;28;93317;-87
2021/11/26 00:22:32;;;;;;;;;;;2.40;99.90;3.00;98768.00;;;;344844;28;83256;-87
2021/11/26 00:22:44;;;;;;;;;;;2.40;99.90;3.00;98764.00;;;;344171;28;94376;-87
2021/11/26 00:22:56;;;;;;;;;;;2.40;99.90;3.00;98766.00;;;;345928;28;83397;-87
2021/11/26 00:23:08;;;;;;;;;;;2.40;99.90;3.10;98767.00;;;;346936;28;94477;-87
2021/11/26 00:23:20;;;;;;;;;;;2.40;99.90;3.10;98756.00;;;;342207;28;82481;-87
2021/11/26 00:23:31;;;;;;;;;;;2.40;99.90;3.10;98767.00;;;;345326;28;96546;-87
2021/11/26 00:23:43;;;;;;;;;;;2.40;99.90;3.10;98762.00;;;;344904;28;83235;-87
2021/11/26 00:23:55;;;;;;;;;;;2.40;99.90;3.00;98760.00;;;;342358;28;97500;-87
2021/11/26 00:24:08;;;;;;;;;;;2.40;99.90;3.00;98756.00;;;;346443;28;82493;-86
2021/11/26 00:24:19;;;;;;;;;;;2.40;99.90;3.00;98754.00;;;;345471;28;93359;-87
2021/11/26 00:24:31;;;;;;;;;;;2.40;99.90;3.00;98756.00;;;;346237;28;83177;-87
2021/11/26 00:24:43;;;;;;;;;;;2.40;99.90;3.10;98763.00;;;;345409;28;95191;-87
2021/11/26 00:24:55;;;;;;;;;;;2.40;99.90;3.00;98767.00;;;;344912;28;83166;-87
2021/11/26 00:25:08;;;;;;;;;;;2.40;99.90;3.00;98764.00;;;;342752;28;95566;-87
2021/11/26 00:25:19;;;;;;;;;;;2.40;99.90;3.00;98764.00;;;;343732;28;82288;-87
2021/11/26 00:25:31;;;;;;;;;;;2.40;99.90;3.00;98759.00;;;;341559;28;92635;-87
2021/11/26 00:25:43;;;;;;;;;;;2.40;99.90;3.00;98766.00;;;;343316;28;83504;-87
2021/11/26 00:25:55;;;;;;;;;;;2.40;99.90;2.90;98760.00;;;;345336;28;95830;-87
2021/11/26 00:26:06;;;;;;;;;;;2.40;99.90;2.90;98758.00;;;;344982;28;83400;-88
2021/11/26 00:26:18;;;;;;;;;;;2.40;99.90;3.00;98761.00;;;;342965;28;93140;-87
2021/11/26 00:26:30;;;;;;;;;;;2.40;99.90;3.00;98754.00;;;;343618;28;82404;-87
2021/11/26 00:26:42;;;;;;;;;;;2.40;99.90;3.00;98763.00;;;;342826;28;94622;-88
2021/11/26 00:26:54;;;;;;;;;;;2.40;99.90;3.00;98762.00;;;;343341;28;83533;-87
2021/11/26 00:27:06;;;;;;;;;;;2.40;99.90;3.00;98759.00;;;;342283;28;95480;-88
2021/11/26 00:27:17;;;;;;;;;;;2.40;99.90;3.00;98758.00;;;;346104;28;82514;-87
2021/11/26 00:27:29;;;;;;;;;;;2.40;99.90;2.90;98760.00;;;;345922;28;92265;-87
2021/11/26 00:27:41;;;;;;;;;;;2.40;99.90;2.90;98759.00;;;;344754;28;83404;-87
2021/11/26 00:27:53;;;;;;;;;;;2.40;99.90;2.90;98758.00;;;;342919;28;92818;-87
2021/11/26 00:28:05;;;;;;;;;;;2.40;99.90;2.90;98756.00;;;;344623;28;83399;-87
2021/11/26 00:28:17;;;;;;;;;;;2.40;99.90;3.00;98762.00;;;;344009;28;96488;-87
2021/11/26 00:28:28;;;;;;;;;;;2.30;99.90;3.00;98758.00;;;;343259;28;82497;-87
2021/11/26 00:28:40;;;;;;;;;;;2.40;99.90;3.00;98750.00;;;;344326;28;93392;-87
2021/11/26 00:28:52;;;;;;;;;;;2.40;99.90;3.00;98753.00;;;;346232;28;82404;-90
2021/11/26 00:29:04;;;;;;;;;;;2.40;99.90;3.00;98760.00;;;;344096;28;92712;-88
2021/11/26 00:29:16;;;;;;;;;;;2.40;99.90;2.90;98768.00;;;;346099;28;82459;-88
2021/11/26 00:29:28;;;;;;;;;;;2.40;99.90;3.00;98760.00;;;;344206;28;92982;-87
2021/11/26 00:29:40;;;;;;;;;;;2.30;99.90;2.90;98759.00;;;;343776;28;83410;-88
2021/11/26 00:29:51;;;;;;;;;;;2.30;99.90;2.90;98762.00;;;;345285;28;95930;-88
2021/11/26 00:30:04;;;;;;;;;;;2.30;99.90;3.00;98754.00;;;;344856;28;82535;-88
2021/11/26 00:30:15;;;;;;;;;;;2.30;99.90;2.90;98759.00;;;;341905;28;92570;-87
2021/11/26 00:30:27;;;;;;;;;;;2.30;99.90;3.00;98754.00;;;;343766;28;83235;-88
2021/11/26 00:30:40;;;;;;;;;;;2.30;99.90;2.90;98766.00;;;;342922;28;93325;-88
2021/11/26 00:30:53;;;;;;;;;;;2.30;99.90;2.90;98753.00;;;;344752;28;83586;-87
2021/11/26 00:31:05;;;;;;;;;;;2.30;99.90;3.00;98761.00;;;;344124;28;93419;-88
2021/11/26 00:31:17;;;;;;;;;;;2.30;99.90;2.90;98758.00;;;;345022;28;83308;-88
2021/11/26 00:31:29;;;;;;;;;;;2.30;99.90;2.90;98754.00;;;;344286;28;94688;-88
2021/11/26 00:31:41;;;;;;;;;;;2.30;99.90;2.90;98758.00;;;;343766;28;82400;-87
2021/11/26 00:31:53;;;;;;;;;;;2.30;99.90;2.90;98758.00;;;;342657;28;94018;-88
2021/11/26 00:32:05;;;;;;;;;;;2.30;99.90;3.00;98754.00;;;;346153;28;83534;-87
2021/11/26 00:32:17;;;;;;;;;;;2.30;99.90;2.90;98758.00;;;;344016;28;93115;-87
2021/11/26 00:32:29;;;;;;;;;;;2.30;99.90;3.00;98760.00;;;;343681;28;82329;-88
2021/11/26 00:32:41;;;;;;;;;;;2.30;99.90;3.00;98750.00;;;;345670;28;93428;-88
2021/11/26 00:32:53;;;;;;;;;;;2.30;99.90;3.00;98757.00;;;;344406;28;83628;-88
2021/11/26 00:33:04;;;;;;;;;;;2.30;99.90;3.00;98747.00;;;;343730;28;95528;-87
2021/11/26 00:33:16;;;;;;;;;;;2.30;99.90;2.90;98749.00;;;;346117;28;83410;-88
2021/11/26 00:33:28;;;;;;;;;;;2.40;99.90;2.80;98754.00;;;;346657;28;94738;-87
2021/11/26 00:33:40;;;;;;;;;;;2.30;99.90;2.90;98747.00;;;;346309;28;82506;-87
2021/11/26 00:33:52;;;;;;;;;;;2.30;99.90;2.90;98755.00;;;;344229;28;96762;-87
2021/11/26 00:34:04;;;;;;;;;;;2.30;99.90;2.90;98750.00;;;;344848;28;83181;-88
2021/11/26 00:34:16;;;;;;;;;;;2.30;99.90;3.00;98749.00;;;;344283;28;94547;-87
2021/11/26 00:34:28;;;;;;;;;;;2.30;99.90;3.00;98753.00;;;;346197;28;82583;-88
2021/11/26 00:34:40;;;;;;;;;;;2.30;99.90;3.00;98760.00;;;;342689;28;95385;-88
2021/11/26 00:34:52;;;;;;;;;;;2.30;99.90;2.90;98753.00;;;;344635;28;82575;-88
2021/11/26 00:35:04;;;;;;;;;;;2.30;99.90;2.80;98755.00;;;;344012;28;93072;-88
2021/11/26 00:35:16;;;;;;;;;;;2.30;99.90;2.90;98757.00;;;;342241;28;82305;-88
2021/11/26 00:35:28;;;;;;;;;;;2.30;99.90;2.90;98760.00;;;;346566;28;95321;-87
2021/11/26 00:35:40;;;;;;;;;;;2.30;99.90;2.90;98750.00;;;;343281;28;83307;-88
2021/11/26 00:35:52;;;;;;;;;;;2.30;99.90;3.00;98755.00;;;;345070;28;96942;-88
2021/11/26 00:36:04;;;;;;;;;;;2.30;99.90;2.90;98752.00;;;;347107;28;82717;-88
2021/11/26 00:36:15;;;;;;;;;;;2.30;99.90;2.90;98757.00;;;;344508;28;94133;-88
2021/11/26 00:36:27;;;;;;;;;;;2.30;99.90;2.90;98753.00;;;;346445;28;83231;-88
2021/11/26 00:36:39;;;;;;;;;;;2.30;99.90;2.90;98751.00;;;;344122;28;94522;-88
2021/11/26 00:36:51;;;;;;;;;;;2.30;99.90;2.90;98759.00;;;;340830;28;83237;-87
2021/11/26 00:37:03;;;;;;;;;;;2.30;99.90;2.90;98756.00;;;;342774;28;93847;-88
2021/11/26 00:37:15;;;;;;;;;;;2.30;99.90;3.00;98755.00;;;;347711;28;82164;-88
2021/11/26 00:37:27;;;;;;;;;;;2.30;99.90;2.90;98751.00;;;;342959;28;93409;-87
2021/11/26 00:37:38;;;;;;;;;;;2.30;99.90;2.90;98752.00;;;;345572;28;82412;-87
2021/11/26 00:37:50;;;;;;;;;;;2.30;99.90;2.90;98758.00;;;;345186;28;96407;-87
2021/11/26 00:38:03;;;;;;;;;;;2.30;99.90;3.00;98766.00;;;;344885;28;82541;-86
2021/11/26 00:38:15;;;;;;;;;;;2.30;99.90;3.00;98760.00;;;;344373;28;92175;-88
2021/11/26 00:38:27;;;;;;;;;;;2.30;99.90;3.00;98757.00;;;;347876;28;82366;-87
2021/11/26 00:38:39;;;;;;;;;;;2.30;99.90;3.00;98752.00;;;;348344;28;93244;-87
2021/11/26 00:38:51;;;;;;;;;;;2.30;99.90;3.00;98755.00;;;;347473;28;82321;-87
2021/11/26 00:39:04;;;;;;;;;;;2.30;99.90;3.00;98759.00;;;;344868;28;95252;-87
2021/11/26 00:39:15;;;;;;;;;;;2.30;99.90;2.90;98759.00;;;;350262;27;82644;-86
2021/11/26 00:39:27;;;;;;;;;;;2.30;99.90;2.90;98755.00;;;;346956;28;93265;-86
2021/11/26 00:39:39;;;;;;;;;;;2.30;99.90;3.00;98751.00;;;;345034;28;82385;-87
2021/11/26 00:39:51;;;;;;;;;;;2.30;99.90;2.90;98757.00;;;;347010;28;94026;-87
2021/11/26 00:40:03;;;;;;;;;;;2.30;99.90;3.00;98758.00;;;;346806;28;82581;-87
2021/11/26 00:40:15;;;;;;;;;;;2.30;99.90;3.00;98749.00;;;;344349;28;93502;-87
2021/11/26 00:40:27;;;;;;;;;;;2.30;99.90;3.00;98753.00;;;;347791;28;82229;-87
2021/11/26 00:40:38;;;;;;;;;;;2.30;99.90;3.00;98747.00;;;;345373;28;95725;-88
2021/11/26 00:40:50;;;;;;;;;;;2.30;99.90;2.90;98757.00;;;;346312;28;82361;-87
2021/11/26 00:41:02;;;;;;;;;;;2.30;99.90;2.90;98752.00;;;;344195;28;92294;-88
2021/11/26 00:41:14;;;;;;;;;;;2.30;99.90;3.00;98755.00;;;;349096;28;82453;-86
2021/11/26 00:41:25;;;;;;;;;;;2.30;99.90;3.00;98741.00;;;;348487;28;91904;-87
2021/11/26 00:41:39;;;;;;;;;;;2.30;99.90;3.10;98759.00;;;;346108;28;82461;-88
2021/11/26 00:41:51;;;;;;;;;;;2.30;99.90;3.10;98746.00;;;;345550;28;94443;-88
2021/11/26 00:42:03;;;;;;;;;;;2.30;99.90;3.10;98743.00;;;;345072;28;82445;-87
2021/11/26 00:42:15;;;;;;;;;;;2.40;99.90;3.10;98748.00;;;;344748;28;93321;-87
2021/11/26 00:42:27;;;;;;;;;;;2.40;99.90;3.10;98752.00;;;;345110;28;82354;-88
2021/11/26 00:42:41;;;;;;;;;;;2.40;99.90;3.10;98746.00;;;;345691;28;93741;-88
2021/11/26 00:42:53;;;;;;;;;;;2.40;99.90;3.00;98749.00;;;;347830;28;82473;-87
2021/11/26 00:43:05;;;;;;;;;;;2.40;99.90;3.00;98752.00;;;;346959;28;94454;-87
2021/11/26 00:43:17;;;;;;;;;;;2.40;99.90;2.90;98746.00;;;;346593;28;82210;-88
2021/11/26 00:43:33;;;;;;;;;;;2.40;99.90;2.90;98751.00;;;;348300;28;92423;-87
2021/11/26 00:43:45;;;;;;;;;;;2.40;99.90;3.00;98746.00;;;;347787;28;82379;-87
2021/11/26 00:43:57;;;;;;;;;;;2.40;99.90;3.00;98750.00;;;;346509;28;96082;-88
2021/11/26 00:44:09;;;;;;;;;;;2.40;99.90;3.00;98743.00;;;;346281;28;82340;-86
2021/11/26 00:44:21;;;;;;;;;;;2.40;99.90;3.00;98746.00;;;;345357;28;92310;-86
2021/11/26 00:44:33;;;;;;;;;;;2.40;99.90;2.90;98751.00;;;;347862;28;82267;-87
2021/11/26 00:44:44;;;;;;;;;;;2.40;99.90;2.90;98752.00;;;;347022;28;93572;-87
2021/11/26 00:44:56;;;;;;;;;;;2.40;99.90;3.00;98754.00;;;;347200;28;83089;-87
2021/11/26 00:45:10;;;;;;;;;;;2.40;99.90;3.00;98752.00;;;;347118;28;92178;-88
2021/11/26 00:45:23;;;;;;;;;;;2.40;99.90;3.00;98754.00;;;;346458;28;82473;-87
2021/11/26 00:45:35;;;;;;;;;;;2.40;99.90;3.00;98744.00;;;;346822;28;93074;-87
2021/11/26 00:45:47;;;;;;;;;;;2.40;99.90;3.00;98745.00;;;;347948;28;82383;-87
2021/11/26 00:45:58;;;;;;;;;;;2.40;99.90;3.00;98749.00;;;;346846;28;94293;-87
2021/11/26 00:46:12;;;;;;;;;;;2.40;99.90;3.00;98754.00;;;;346189;28;82400;-87
2021/11/26 00:46:23;;;;;;;;;;;2.40;99.90;3.10;98749.00;;;;345595;28;93701;-87
2021/11/26 00:46:35;;;;;;;;;;;2.40;99.90;3.00;98746.00;;;;344801;28;82453;-88
2021/11/26 00:46:47;;;;;;;;;;;2.40;99.90;2.90;98751.00;;;;345353;28;95283;-86
2021/11/26 00:46:59;;;;;;;;;;;2.40;99.90;2.90;98753.00;;;;347662;28;82317;-88
2021/11/26 00:47:11;;;;;;;;;;;2.30;99.90;3.00;98753.00;;;;347042;28;93582;-87
2021/11/26 00:47:26;;;;;;;;;;;2.30;99.90;3.00;98744.00;;;;347205;28;82643;-86
2021/11/26 00:47:38;;;;;;;;;;;2.30;99.90;3.00;98750.00;;;;345456;28;95301;-86
2021/11/26 00:47:50;;;;;;;;;;;2.30;99.90;3.00;98743.00;;;;346453;28;82521;-87
2021/11/26 00:48:02;;;;;;;;;;;2.30;99.90;3.00;98743.00;;;;346041;28;93229;-88
2021/11/26 00:48:15;;;;;;;;;;;2.40;99.90;3.00;98758.00;;;;348121;28;82608;-87
2021/11/26 00:48:27;;;;;;;;;;;2.30;99.90;3.00;98748.00;;;;348394;28;93568;-87
2021/11/26 00:48:39;;;;;;;;;;;2.30;99.90;3.00;98749.00;;;;347871;28;83243;-87
2021/11/26 00:48:51;;;;;;;;;;;2.30;99.90;3.00;98753.00;;;;345356;28;95434;-87
2021/11/26 00:49:03;;;;;;;;;;;2.40;99.90;3.00;98761.00;;;;344737;28;83087;-88
2021/11/26 00:49:15;;;;;;;;;;;2.40;99.90;3.00;98747.00;;;;346986;28;93617;-87
2021/11/26 00:49:26;;;;;;;;;;;2.30;99.90;3.00;98748.00;;;;346185;28;83488;-88
2021/11/26 00:49:38;;;;;;;;;;;2.30;99.90;3.00;98746.00;;;;344304;28;93143;-87
2021/11/26 00:49:50;;;;;;;;;;;2.40;99.90;3.00;98744.00;;;;347615;28;82384;-87
2021/11/26 00:50:03;;;;;;;;;;;2.40;99.90;3.00;98754.00;;;;345640;28;94312;-87
2021/11/26 00:50:15;;;;;;;;;;;2.40;99.90;3.10;98748.00;;;;347566;28;82458;-88
2021/11/26 00:50:27;;;;;;;;;;;2.40;99.90;3.10;98746.00;;;;344342;28;93312;-87
2021/11/26 00:50:39;;;;;;;;;;;2.40;99.90;3.10;98744.00;;;;346332;28;82405;-87
2021/11/26 00:50:51;;;;;;;;;;;2.40;99.90;3.00;98740.00;;;;348223;28;95235;-87
2021/11/26 00:51:03;;;;;;;;;;;2.40;99.90;3.10;98745.00;;;;345937;28;82524;-87
2021/11/26 00:51:15;;;;;;;;;;;2.40;99.90;3.10;98745.00;;;;348283;28;93461;-87
2021/11/26 00:51:30;;;;;;;;;;;2.40;99.90;3.10;98740.00;;;;347863;28;82387;-86
2021/11/26 00:51:42;;;;;;;;;;;2.40;99.90;3.00;98756.00;;;;344264;28;95100;-87
2021/11/26 00:51:53;;;;;;;;;;;2.40;99.90;3.00;98747.00;;;;348764;28;82453;-87
2021/11/26 00:52:05;;;;;;;;;;;2.40;99.90;3.10;98748.00;;;;345430;28;94423;-88
2021/11/26 00:52:17;;;;;;;;;;;2.40;99.90;3.10;98739.00;;;;343442;28;83373;-87
2021/11/26 00:52:29;;;;;;;;;;;2.40;99.90;3.10;98734.00;;;;344293;28;93439;-87
2021/11/26 00:52:41;;;;;;;;;;;2.40;99.90;3.10;98742.00;;;;347475;28;82442;-87
2021/11/26 00:52:53;;;;;;;;;;;2.40;99.90;3.10;98743.00;;;;346195;28;95247;-88
2021/11/26 00:53:05;;;;;;;;;;;2.40;99.90;3.10;98740.00;;;;346226;28;82422;-89
2021/11/26 00:53:17;;;;;;;;;;;2.40;99.90;3.00;98745.00;;;;343849;28;95479;-88
2021/11/26 00:53:28;;;;;;;;;;;2.40;99.90;3.00;98741.00;;;;345972;28;82340;-88
2021/11/26 00:53:40;;;;;;;;;;;2.40;99.90;3.00;98748.00;;;;345168;28;95706;-88
2021/11/26 00:53:52;;;;;;;;;;;2.40;99.90;3.10;98746.00;;;;344609;28;83387;-88
2021/11/26 00:54:04;;;;;;;;;;;2.40;99.90;3.10;98744.00;;;;343305;28;94326;-88
2021/11/26 00:54:16;;;;;;;;;;;2.40;99.90;3.00;98741.00;;;;345744;28;83456;-88
2021/11/26 00:54:28;;;;;;;;;;;2.40;99.90;3.00;98736.00;;;;343916;28;96617;-88
2021/11/26 00:54:39;;;;;;;;;;;2.40;99.90;3.10;98734.00;;;;344742;28;82367;-88
2021/11/26 00:54:51;;;;;;;;;;;2.40;99.90;3.10;98744.00;;;;346493;28;95268;-88
2021/11/26 00:55:04;;;;;;;;;;;2.40;99.90;3.10;98735.00;;;;347457;28;83293;-88
2021/11/26 00:55:16;;;;;;;;;;;2.40;99.90;3.10;98735.00;;;;342741;28;92830;-88
2021/11/26 00:55:28;;;;;;;;;;;2.40;99.90;3.10;98732.00;;;;347245;28;83314;-87
2021/11/26 00:55:40;;;;;;;;;;;2.50;99.90;3.20;98731.00;;;;344001;28;94358;-88
2021/11/26 00:55:52;;;;;;;;;;;2.50;99.90;3.20;98737.00;;;;342019;28;83290;-88
2021/11/26 00:56:04;;;;;;;;;;;2.50;99.90;3.10;98739.00;;;;345177;28;94796;-88
2021/11/26 00:56:16;;;;;;;;;;;2.50;99.90;3.10;98732.00;;;;346059;28;83363;-87
2021/11/26 00:56:28;;;;;;;;;;;2.50;99.90;3.10;98737.00;;;;342628;28;94471;-88
2021/11/26 00:56:40;;;;;;;;;;;2.50;99.90;3.10;98732.00;;;;344851;28;83354;-88
2021/11/26 00:56:51;;;;;;;;;;;2.50;99.90;3.10;98737.00;;;;345114;28;96674;-88
2021/11/26 00:57:07;;;;;;;;;;;2.50;99.90;3.10;98735.00;;;;342915;28;83608;-88
2021/11/26 00:57:20;;;;;;;;;;;2.50;99.90;3.00;98745.00;;;;343961;28;95563;-88
2021/11/26 00:57:31;;;;;;;;;;;2.50;99.90;3.00;98736.00;;;;346847;28;84103;-88
2021/11/26 00:57:43;;;;;;;;;;;2.40;99.90;3.00;98735.00;;;;342410;28;97924;-88
2021/11/26 00:57:55;;;;;;;;;;;2.50;99.90;3.10;98728.00;;;;343323;28;83345;-88
2021/11/26 00:58:07;;;;;;;;;;;2.50;99.90;3.10;98739.00;;;;344899;28;96135;-87
2021/11/26 00:58:18;;;;;;;;;;;2.50;99.90;3.10;98739.00;;;;343279;28;82484;-88
2021/11/26 00:58:30;;;;;;;;;;;2.50;99.90;3.10;98738.00;;;;341126;28;96871;-88
2021/11/26 00:58:42;;;;;;;;;;;2.50;99.90;3.10;98729.00;;;;343290;28;83300;-88
2021/11/26 00:58:54;;;;;;;;;;;2.50;99.90;3.10;98725.00;;;;342517;28;94714;-88
2021/11/26 00:59:05;;;;;;;;;;;2.50;99.90;3.10;98741.00;;;;343221;28;82382;-88
2021/11/26 00:59:17;;;;;;;;;;;2.50;99.90;3.10;98739.00;;;;343702;28;96597;-88
2021/11/26 00:59:31;;;;;;;;;;;2.50;99.90;3.10;98728.00;;;;345879;28;83489;-88
2021/11/26 00:59:43;;;;;;;;;;;2.50;99.90;3.10;98732.00;;;;342277;28;93181;-88
2021/11/26 00:59:55;;;;;;;;;;;2.50;99.90;3.10;98730.00;;;;344667;28;83352;-88
2021/11/26 01:00:09;;;;;;;;;;;2.50;99.90;3.00;98733.00;;;;343332;28;97988;-86
2021/11/26 01:00:21;;;;;;;;;;;2.50;99.90;3.00;98730.00;;;;346082;28;83302;-88
2021/11/26 01:00:35;;;;;;;;;;;2.50;99.90;3.10;98736.00;;;;346002;28;94958;-88
2021/11/26 01:00:47;;;;;;;;;;;2.50;99.90;3.10;98732.00;;;;344444;28;82561;-88
2021/11/26 01:00:59;;;;;;;;;;;2.50;99.90;3.10;98739.00;;;;345115;28;94358;-88
2021/11/26 01:01:11;;;;;;;;;;;2.50;99.90;3.10;98727.00;;;;344616;28;83515;-88
2021/11/26 01:01:23;;;;;;;;;;;2.50;99.90;3.10;98736.00;;;;343705;28;97060;-88
2021/11/26 01:01:38;;;;;;;;;;;2.50;99.90;3.10;98732.00;;;;344700;28;83538;-87
2021/11/26 01:01:50;;;;;;;;;;;2.50;99.90;3.10;98730.00;;;;343713;28;96828;-88
2021/11/26 01:02:02;;;;;;;;;;;2.50;99.90;3.10;98732.00;;;;344786;28;83341;-88
2021/11/26 01:02:14;;;;;;;;;;;2.50;99.90;3.20;98729.00;;;;343925;28;95194;-87
2021/11/26 01:02:26;;;;;;;;;;;2.50;99.90;3.20;98737.00;;;;344466;28;83603;-88
2021/11/26 01:02:39;;;;;;;;;;;2.50;99.90;3.20;98723.00;;;;346421;28;96664;-88
2021/11/26 01:02:54;;;;;;;;;;;2.50;99.90;3.20;98748.00;;;;344416;28;83560;-88
2021/11/26 01:03:06;;;;;;;;;;;2.50;99.90;3.30;98736.00;;;;345858;28;95896;-88
2021/11/26 01:03:18;;;;;;;;;;;2.50;99.90;3.20;98727.00;;;;347431;28;82588;-88
2021/11/26 01:03:30;;;;;;;;;;;2.50;99.90;3.20;98724.00;;;;342422;28;93775;-88
2021/11/26 01:03:42;;;;;;;;;;;2.50;99.90;3.20;98726.00;;;;343210;28;83289;-88